Home   Weather   India   Moga   Past weeks
Flag for India

Past Weather in Moga, Punjab, India — Yesterday and Last 2 Weeks

Currently: 81 °F. Fog. (Weather station: Amritsar Airport, India). See more current weather

Past Weather in Moga — Graph

°F

Moga Temperature Yesterday

Maximum temperature yesterday: 99 °F (at 3:30 pm)
Minimum temperature yesterday: 81 °F (at 6:30 am)
Average temperature yesterday: 91 °F

High & Low Weather Summary for the Past Weeks

 TemperatureHumidityPressure
High100 °F (Jul 11, 3:00 pm)100% (Jul 8, 5:00 am)29.65 "Hg (Jul 8, 5:00 am)
Low75 °F (Jul 12, 9:30 am)58% (Jul 14, 7:00 am)29.36 "Hg (Jul 11, 8:00 pm)
Average91 °F84%29.51 "Hg
* Reported Jul 8 4:30 am — Jul 23 4:30 am, Moga. Weather by CustomWeather, © 2024

Note: Actual official high and low records may vary slightly from our data, if they occured in-between our weather recording intervals... More about our weather records

Moga Weather History for the Previous 24 Hours

Scroll right to see more
 ConditionsComfort  
Time TempWeatherWind HumidityBarometerVisibility
4:30 am
Tue, Jul 23
88 °FPartly cloudy.12 mph89%29.47 "Hg2 mi
3:30 am88 °FFog.10 mph89%29.47 "Hg2 mi
2:00 am88 °FFog.13 mph89%29.47 "Hg3 mi
1:30 am88 °FFog.12 mph94%29.50 "Hg2 mi
12:30 am90 °FPassing clouds.14 mph94%29.50 "Hg2 mi
12:00 am91 °FFog.8 mph84%29.50 "Hg2 mi
11:30 pm
Mon, Jul 22
91 °FFog.5 mph84%29.50 "Hg3 mi
11:00 pm91 °FFog.5 mph84%29.50 "Hg3 mi
10:30 pm90 °FFog.3 mph89%29.47 "Hg3 mi
10:00 pm91 °FFog.3 mph84%29.47 "Hg3 mi
9:35 pm91 °FHot.N/A89%29.45 "HgN/A
9:30 pm91 °FFog.3 mph89%29.45 "Hg3 mi
9:00 pm91 °FFog.2 mph84%29.45 "Hg3 mi
8:30 pm91 °FFog.2 mph89%29.42 "Hg3 mi
7:30 pm93 °FFog.3 mph84%29.42 "Hg3 mi
7:00 pm93 °FHaze.6 mph84%29.42 "Hg3 mi
6:30 pm95 °FHaze.3 mph80%29.42 "Hg3 mi
6:00 pm97 °FHaze.5 mph75%29.42 "Hg3 mi
5:30 pm97 °FHaze.5 mph75%29.42 "Hg3 mi
5:00 pm97 °FScattered clouds.7 mph71%29.45 "Hg3 mi
4:30 pm97 °FScattered clouds.6 mph71%29.45 "Hg3 mi
4:00 pm97 °FScattered clouds.5 mph67%29.47 "Hg3 mi
3:30 pm99 °FScattered clouds.3 mph64%29.47 "Hg3 mi
3:00 pm97 °FScattered clouds.5 mph67%29.47 "Hg3 mi
2:30 pm97 °FScattered clouds.3 mph63%29.50 "Hg3 mi
2:00 pm95 °FScattered clouds.5 mph75%29.50 "Hg3 mi
1:30 pm93 °FScattered clouds.5 mph75%29.50 "Hg3 mi
12:30 pm91 °FScattered clouds.8 mph75%29.53 "Hg3 mi
12:00 pm91 °FScattered clouds.9 mph75%29.53 "Hg3 mi
11:30 am91 °FScattered clouds.7 mph75%29.56 "Hg3 mi
11:00 am88 °FFog.7 mph79%29.56 "Hg2 mi
10:30 am86 °FFog.12 mph84%29.56 "Hg2 mi
10:00 am88 °FFog.9 mph84%29.56 "Hg2 mi
9:30 am88 °FFog.5 mph84%29.53 "Hg3 mi
9:00 am86 °FFog.7 mph84%29.53 "Hg3 mi
8:30 am84 °FFog.10 mph89%29.53 "Hg3 mi
8:00 am84 °FFog.8 mph94%29.53 "Hg3 mi
Weather by CustomWeather, © 2024

See weather overview